sensor_id;sensor_type;location;lat;lon;timestamp;temperature;humidity
39875;DHT22;25547;52.530;13.194;2023-02-28T00:00:28;2.70;99.90
39875;DHT22;25547;52.530;13.194;2023-02-28T00:02:57;2.70;99.90
39875;DHT22;25547;52.530;13.194;2023-02-28T00:05:24;2.70;99.90
39875;DHT22;25547;52.530;13.194;2023-02-28T00:07:50;2.70;99.90
39875;DHT22;25547;52.530;13.194;2023-02-28T00:10:19;2.70;99.90
39875;DHT22;25547;52.530;13.194;2023-02-28T00:12:47;2.70;99.90
39875;DHT22;25547;52.530;13.194;2023-02-28T00:15:16;2.60;99.90
39875;DHT22;25547;52.530;13.194;2023-02-28T00:17:42;2.70;99.90
39875;DHT22;25547;52.530;13.194;2023-02-28T00:20:08;2.70;99.90
39875;DHT22;25547;52.530;13.194;2023-02-28T00:22:39;2.70;99.90
39875;DHT22;25547;52.530;13.194;2023-02-28T00:25:06;2.70;99.90
39875;DHT22;25547;52.530;13.194;2023-02-28T00:27:38;2.70;99.90
39875;DHT22;25547;52.530;13.194;2023-02-28T00:30:06;2.80;99.90
39875;DHT22;25547;52.530;13.194;2023-02-28T00:32:37;2.70;99.90
39875;DHT22;25547;52.530;13.194;2023-02-28T00:35:03;2.60;99.90
39875;DHT22;25547;52.530;13.194;2023-02-28T00:37:29;2.60;99.90
39875;DHT22;25547;52.530;13.194;2023-02-28T00:39:54;2.70;99.90
39875;DHT22;25547;52.530;13.194;2023-02-28T00:42:20;2.70;99.90
39875;DHT22;25547;52.530;13.194;2023-02-28T00:44:45;2.60;99.90
39875;DHT22;25547;52.530;13.194;2023-02-28T00:47:11;2.60;99.90
39875;DHT22;25547;52.530;13.194;2023-02-28T00:49:39;2.60;99.90
39875;DHT22;25547;52.530;13.194;2023-02-28T00:52:05;2.70;99.90
39875;DHT22;25547;52.530;13.194;2023-02-28T00:54:30;2.70;99.90
39875;DHT22;25547;52.530;13.194;2023-02-28T00:56:58;2.70;99.90
39875;DHT22;25547;52.530;13.194;2023-02-28T00:59:24;2.70;99.90
39875;DHT22;25547;52.530;13.194;2023-02-28T01:01:52;2.60;99.90
39875;DHT22;25547;52.530;13.194;2023-02-28T01:04:17;2.60;99.90
39875;DHT22;25547;52.530;13.194;2023-02-28T01:06:43;2.70;99.90
39875;DHT22;25547;52.530;13.194;2023-02-28T01:09:11;2.70;99.90
39875;DHT22;25547;52.530;13.194;2023-02-28T01:11:37;2.70;99.90
39875;DHT22;25547;52.530;13.194;2023-02-28T01:14:04;2.80;99.90
39875;DHT22;25547;52.530;13.194;2023-02-28T01:16:30;2.80;99.90
39875;DHT22;25547;52.530;13.194;2023-02-28T01:18:56;2.80;99.90
39875;DHT22;25547;52.530;13.194;2023-02-28T01:21:27;2.80;99.90
39875;DHT22;25547;52.530;13.194;2023-02-28T01:23:56;2.80;99.90
39875;DHT22;25547;52.530;13.194;2023-02-28T01:26:25;2.80;99.90
39875;DHT22;25547;52.530;13.194;2023-02-28T01:28:52;2.80;99.90
39875;DHT22;25547;52.530;13.194;2023-02-28T01:31:19;2.80;99.90
39875;DHT22;25547;52.530;13.194;2023-02-28T01:33:45;2.70;99.90
39875;DHT22;25547;52.530;13.194;2023-02-28T01:36:19;2.70;99.90
39875;DHT22;25547;52.530;13.194;2023-02-28T01:38:47;2.70;99.90
39875;DHT22;25547;52.530;13.194;2023-02-28T01:41:26;2.70;99.90
39875;DHT22;25547;52.530;13.194;2023-02-28T01:46:31;2.60;99.90
39875;DHT22;25547;52.530;13.194;2023-02-28T01:49:11;2.60;99.90
39875;DHT22;25547;52.530;13.194;2023-02-28T01:51:45;2.60;99.90
39875;DHT22;25547;52.530;13.194;2023-02-28T01:54:22;2.60;99.90
39875;DHT22;25547;52.530;13.194;2023-02-28T01:57:01;2.60;99.90
39875;DHT22;25547;52.530;13.194;2023-02-28T01:59:56;2.60;99.90
39875;DHT22;25547;52.530;13.194;2023-02-28T02:02:24;2.60;99.90
39875;DHT22;25547;52.530;13.194;2023-02-28T02:04:58;2.60;99.90
39875;DHT22;25547;52.530;13.194;2023-02-28T02:07:31;2.60;99.90
39875;DHT22;25547;52.530;13.194;2023-02-28T02:10:05;2.50;99.90
39875;DHT22;25547;52.530;13.194;2023-02-28T02:12:47;2.60;99.90
39875;DHT22;25547;52.530;13.194;2023-02-28T02:15:26;2.50;99.90
39875;DHT22;25547;52.530;13.194;2023-02-28T02:18:00;2.50;99.90
39875;DHT22;25547;52.530;13.194;2023-02-28T02:32:35;2.30;99.90
39875;DHT22;25547;52.530;13.194;2023-02-28T02:36:01;2.20;99.90
39875;DHT22;25547;52.530;13.194;2023-02-28T02:38:22;2.10;99.90
39875;DHT22;25547;52.530;13.194;2023-02-28T02:41:10;2.10;99.90
39875;DHT22;25547;52.530;13.194;2023-02-28T02:43:47;2.00;99.90
39875;DHT22;25547;52.530;13.194;2023-02-28T02:46:39;2.00;99.90
39875;DHT22;25547;52.530;13.194;2023-02-28T02:49:13;2.00;99.90
39875;DHT22;25547;52.530;13.194;2023-02-28T02:51:44;1.90;99.90
39875;DHT22;25547;52.530;13.194;2023-02-28T02:54:16;1.90;99.90
39875;DHT22;25547;52.530;13.194;2023-02-28T02:56:45;1.90;99.90
39875;DHT22;25547;52.530;13.194;2023-02-28T02:59:17;1.60;99.90
39875;DHT22;25547;52.530;13.194;2023-02-28T03:01:51;1.30;99.90
39875;DHT22;25547;52.530;13.194;2023-02-28T03:04:23;1.10;99.90
39875;DHT22;25547;52.530;13.194;2023-02-28T03:06:52;1.00;99.90
39875;DHT22;25547;52.530;13.194;2023-02-28T03:09:24;1.00;99.90
39875;DHT22;25547;52.530;13.194;2023-02-28T03:11:52;1.10;99.90
39875;DHT22;25547;52.530;13.194;2023-02-28T03:26:22;0.90;99.90
39875;DHT22;25547;52.530;13.194;2023-02-28T03:31:45;0.80;99.90
39875;DHT22;25547;52.530;13.194;2023-02-28T03:34:38;0.80;99.90
39875;DHT22;25547;52.530;13.194;2023-02-28T03:37:15;0.80;99.90
39875;DHT22;25547;52.530;13.194;2023-02-28T03:39:55;0.90;99.90
39875;DHT22;25547;52.530;13.194;2023-02-28T03:42:24;1.00;99.90
39875;DHT22;25547;52.530;13.194;2023-02-28T03:44:57;1.10;99.90
39875;DHT22;25547;52.530;13.194;2023-02-28T03:52:31;1.10;99.90
39875;DHT22;25547;52.530;13.194;2023-02-28T03:55:03;1.00;99.90
39875;DHT22;25547;52.530;13.194;2023-02-28T03:57:43;1.00;99.90
39875;DHT22;25547;52.530;13.194;2023-02-28T04:00:17;1.00;99.90
39875;DHT22;25547;52.530;13.194;2023-02-28T04:02:46;1.00;99.90
39875;DHT22;25547;52.530;13.194;2023-02-28T04:05:18;0.90;99.90
39875;DHT22;25547;52.530;13.194;2023-02-28T04:07:47;0.80;99.90
39875;DHT22;25547;52.530;13.194;2023-02-28T04:10:16;0.40;99.90
39875;DHT22;25547;52.530;13.194;2023-02-28T04:12:45;0.20;99.90
39875;DHT22;25547;52.530;13.194;2023-02-28T04:15:11;0.20;99.90
39875;DHT22;25547;52.530;13.194;2023-02-28T04:17:37;0.20;99.90
39875;DHT22;25547;52.530;13.194;2023-02-28T04:20:03;0.30;99.90
39875;DHT22;25547;52.530;13.194;2023-02-28T04:22:34;0.40;99.90
39875;DHT22;25547;52.530;13.194;2023-02-28T04:25:00;0.30;99.90
39875;DHT22;25547;52.530;13.194;2023-02-28T04:27:28;0.30;99.90
39875;DHT22;25547;52.530;13.194;2023-02-28T04:29:53;0.20;99.90
39875;DHT22;25547;52.530;13.194;2023-02-28T04:32:19;0.30;99.90
39875;DHT22;25547;52.530;13.194;2023-02-28T04:34:44;0.30;99.90
39875;DHT22;25547;52.530;13.194;2023-02-28T04:37:15;0.30;99.90
39875;DHT22;25547;52.530;13.194;2023-02-28T04:39:41;0.40;99.90
39875;DHT22;25547;52.530;13.194;2023-02-28T04:42:07;0.40;99.90
39875;DHT22;25547;52.530;13.194;2023-02-28T04:44:35;0.40;99.90
39875;DHT22;25547;52.530;13.194;2023-02-28T04:47:01;0.40;99.90
39875;DHT22;25547;52.530;13.194;2023-02-28T04:49:27;0.50;99.90
39875;DHT22;25547;52.530;13.194;2023-02-28T04:51:54;0.50;99.90
39875;DHT22;25547;52.530;13.194;2023-02-28T04:54:21;0.40;99.90
39875;DHT22;25547;52.530;13.194;2023-02-28T04:56:47;0.40;99.90
39875;DHT22;25547;52.530;13.194;2023-02-28T04:59:17;0.30;99.90
39875;DHT22;25547;52.530;13.194;2023-02-28T05:01:46;0.30;99.90
39875;DHT22;25547;52.530;13.194;2023-02-28T05:04:12;0.10;99.90
39875;DHT22;25547;52.530;13.194;2023-02-28T05:06:38;0.00;99.90
39875;DHT22;25547;52.530;13.194;2023-02-28T05:09:06;-0.10;99.90
39875;DHT22;25547;52.530;13.194;2023-02-28T05:11:33;-0.10;99.90
39875;DHT22;25547;52.530;13.194;2023-02-28T05:14:06;0.00;99.90
39875;DHT22;25547;52.530;13.194;2023-02-28T05:16:34;0.00;99.90
39875;DHT22;25547;52.530;13.194;2023-02-28T05:18:59;0.00;99.90
39875;DHT22;25547;52.530;13.194;2023-02-28T05:21:32;-0.20;99.90
39875;DHT22;25547;52.530;13.194;2023-02-28T05:24:03;-0.30;99.90
39875;DHT22;25547;52.530;13.194;2023-02-28T05:26:29;-0.50;99.90
39875;DHT22;25547;52.530;13.194;2023-02-28T05:28:57;-0.50;99.90
39875;DHT22;25547;52.530;13.194;2023-02-28T05:31:23;-0.50;99.90
39875;DHT22;25547;52.530;13.194;2023-02-28T05:33:51;-0.30;99.90
39875;DHT22;25547;52.530;13.194;2023-02-28T05:36:17;-0.30;99.90
39875;DHT22;25547;52.530;13.194;2023-02-28T05:38:42;-0.30;99.90
39875;DHT22;25547;52.530;13.194;2023-02-28T05:41:11;-0.50;99.90
39875;DHT22;25547;52.530;13.194;2023-02-28T05:43:37;-0.50;99.90
39875;DHT22;25547;52.530;13.194;2023-02-28T05:46:05;-0.60;99.90
39875;DHT22;25547;52.530;13.194;2023-02-28T05:48:33;-0.60;99.90
39875;DHT22;25547;52.530;13.194;2023-02-28T05:50:59;-0.40;99.90
39875;DHT22;25547;52.530;13.194;2023-02-28T05:53:25;-0.40;99.90
39875;DHT22;25547;52.530;13.194;2023-02-28T05:55:51;-0.50;99.90
39875;DHT22;25547;52.530;13.194;2023-02-28T05:58:17;-0.50;99.90
39875;DHT22;25547;52.530;13.194;2023-02-28T06:00:43;-0.40;99.90
39875;DHT22;25547;52.530;13.194;2023-02-28T06:03:13;-0.20;99.90
39875;DHT22;25547;52.530;13.194;2023-02-28T06:05:38;-0.20;99.90
39875;DHT22;25547;52.530;13.194;2023-02-28T06:08:04;-0.10;99.90
39875;DHT22;25547;52.530;13.194;2023-02-28T06:10:35;-0.20;99.90
39875;DHT22;25547;52.530;13.194;2023-02-28T06:13:04;-0.10;99.90
39875;DHT22;25547;52.530;13.194;2023-02-28T06:15:32;-0.10;99.90
39875;DHT22;25547;52.530;13.194;2023-02-28T06:18:00;-0.30;99.90
39875;DHT22;25547;52.530;13.194;2023-02-28T06:20:27;-0.30;99.90
39875;DHT22;25547;52.530;13.194;2023-02-28T06:22:58;-0.40;99.90
39875;DHT22;25547;52.530;13.194;2023-02-28T06:25:24;-0.40;99.90
39875;DHT22;25547;52.530;13.194;2023-02-28T06:27:50;-0.50;99.90
39875;DHT22;25547;52.530;13.194;2023-02-28T06:30:17;-0.50;99.90
39875;DHT22;25547;52.530;13.194;2023-02-28T06:32:43;-0.40;99.90
39875;DHT22;25547;52.530;13.194;2023-02-28T06:35:09;-0.40;99.90
39875;DHT22;25547;52.530;13.194;2023-02-28T06:37:34;-0.40;99.90
39875;DHT22;25547;52.530;13.194;2023-02-28T06:40:00;-0.50;99.90
39875;DHT22;25547;52.530;13.194;2023-02-28T06:42:26;-0.40;99.90
39875;DHT22;25547;52.530;13.194;2023-02-28T06:44:57;-0.30;99.90
39875;DHT22;25547;52.530;13.194;2023-02-28T06:47:24;-0.30;99.90
39875;DHT22;25547;52.530;13.194;2023-02-28T06:49:50;-0.30;99.90
39875;DHT22;25547;52.530;13.194;2023-02-28T06:52:16;-0.20;99.90
39875;DHT22;25547;52.530;13.194;2023-02-28T06:54:41;-0.10;99.90
39875;DHT22;25547;52.530;13.194;2023-02-28T06:57:07;-0.10;99.90
39875;DHT22;25547;52.530;13.194;2023-02-28T06:59:38;0.00;99.90
39875;DHT22;25547;52.530;13.194;2023-02-28T07:02:08;0.10;99.90
39875;DHT22;25547;52.530;13.194;2023-02-28T07:04:36;0.10;99.90
39875;DHT22;25547;52.530;13.194;2023-02-28T07:07:02;0.10;99.90
39875;DHT22;25547;52.530;13.194;2023-02-28T07:09:27;0.10;99.90
39875;DHT22;25547;52.530;13.194;2023-02-28T07:11:55;0.10;99.90
39875;DHT22;25547;52.530;13.194;2023-02-28T07:14:23;0.10;99.90
39875;DHT22;25547;52.530;13.194;2023-02-28T07:16:48;0.10;99.90
39875;DHT22;25547;52.530;13.194;2023-02-28T07:19:15;0.10;99.90
39875;DHT22;25547;52.530;13.194;2023-02-28T07:21:43;0.10;99.90
39875;DHT22;25547;52.530;13.194;2023-02-28T07:24:09;0.10;99.90
39875;DHT22;25547;52.530;13.194;2023-02-28T07:26:34;0.10;99.90
39875;DHT22;25547;52.530;13.194;2023-02-28T07:29:00;0.20;99.90
39875;DHT22;25547;52.530;13.194;2023-02-28T07:31:26;0.30;99.90
39875;DHT22;25547;52.530;13.194;2023-02-28T07:33:51;0.30;99.90
39875;DHT22;25547;52.530;13.194;2023-02-28T07:36:18;0.40;99.90
39875;DHT22;25547;52.530;13.194;2023-02-28T07:38:45;0.50;99.90
39875;DHT22;25547;52.530;13.194;2023-02-28T07:41:14;0.60;99.90
39875;DHT22;25547;52.530;13.194;2023-02-28T07:43:40;0.60;99.90
39875;DHT22;25547;52.530;13.194;2023-02-28T07:46:09;0.70;99.90
39875;DHT22;25547;52.530;13.194;2023-02-28T07:48:35;1.20;99.90
39875;DHT22;25547;52.530;13.194;2023-02-28T07:51:01;1.40;99.90
39875;DHT22;25547;52.530;13.194;2023-02-28T07:53:30;1.50;99.90
39875;DHT22;25547;52.530;13.194;2023-02-28T07:55:57;1.70;99.90
39875;DHT22;25547;52.530;13.194;2023-02-28T07:58:23;1.70;99.90
39875;DHT22;25547;52.530;13.194;2023-02-28T08:00:49;2.00;99.90
39875;DHT22;25547;52.530;13.194;2023-02-28T08:03:18;3.10;99.90
39875;DHT22;25547;52.530;13.194;2023-02-28T08:05:49;5.10;99.90
39875;DHT22;25547;52.530;13.194;2023-02-28T08:08:16;5.80;99.90
39875;DHT22;25547;52.530;13.194;2023-02-28T08:10:42;5.60;99.90
39875;DHT22;25547;52.530;13.194;2023-02-28T08:13:13;5.20;99.90
39875;DHT22;25547;52.530;13.194;2023-02-28T08:15:40;6.70;99.10
39875;DHT22;25547;52.530;13.194;2023-02-28T08:18:08;9.10;93.10
39875;DHT22;25547;52.530;13.194;2023-02-28T08:20:36;11.10;82.60
39875;DHT22;25547;52.530;13.194;2023-02-28T08:23:04;12.00;74.30
39875;DHT22;25547;52.530;13.194;2023-02-28T08:25:32;13.30;66.70
39875;DHT22;25547;52.530;13.194;2023-02-28T08:28:00;14.20;62.30
39875;DHT22;25547;52.530;13.194;2023-02-28T08:30:25;14.70;57.20
39875;DHT22;25547;52.530;13.194;2023-02-28T08:32:51;13.80;54.20
39875;DHT22;25547;52.530;13.194;2023-02-28T08:35:17;12.90;52.50
39875;DHT22;25547;52.530;13.194;2023-02-28T08:37:42;14.80;50.10
39875;DHT22;25547;52.530;13.194;2023-02-28T08:40:08;15.70;47.60
39875;DHT22;25547;52.530;13.194;2023-02-28T08:42:34;15.10;44.00
39875;DHT22;25547;52.530;13.194;2023-02-28T08:45:00;14.80;44.70
39875;DHT22;25547;52.530;13.194;2023-02-28T08:47:31;15.90;44.00
39875;DHT22;25547;52.530;13.194;2023-02-28T08:49:57;15.50;42.80
39875;DHT22;25547;52.530;13.194;2023-02-28T08:52:24;16.20;43.30
39875;DHT22;25547;52.530;13.194;2023-02-28T08:54:52;15.70;41.70
39875;DHT22;25547;52.530;13.194;2023-02-28T08:57:20;14.80;41.50
39875;DHT22;25547;52.530;13.194;2023-02-28T08:59:50;13.60;45.40
39875;DHT22;25547;52.530;13.194;2023-02-28T09:02:16;15.40;45.70
39875;DHT22;25547;52.530;13.194;2023-02-28T09:04:42;17.40;42.90
39875;DHT22;25547;52.530;13.194;2023-02-28T09:07:13;17.90;40.10
39875;DHT22;25547;52.530;13.194;2023-02-28T09:09:39;17.00;39.00
39875;DHT22;25547;52.530;13.194;2023-02-28T09:12:22;16.30;38.20
39875;DHT22;25547;52.530;13.194;2023-02-28T09:14:48;14.00;41.00
39875;DHT22;25547;52.530;13.194;2023-02-28T09:17:13;11.60;42.70
39875;DHT22;25547;52.530;13.194;2023-02-28T09:19:39;11.00;46.00
39875;DHT22;25547;52.530;13.194;2023-02-28T09:22:05;10.30;47.10
39875;DHT22;25547;52.530;13.194;2023-02-28T09:24:35;9.70;50.00
39875;DHT22;25547;52.530;13.194;2023-02-28T09:27:01;7.80;51.40
39875;DHT22;25547;52.530;13.194;2023-02-28T09:29:27;7.30;53.20
39875;DHT22;25547;52.530;13.194;2023-02-28T09:31:52;7.30;54.20
39875;DHT22;25547;52.530;13.194;2023-02-28T09:34:18;6.90;54.50
39875;DHT22;25547;52.530;13.194;2023-02-28T09:36:43;6.40;55.10
39875;DHT22;25547;52.530;13.194;2023-02-28T09:39:09;6.30;55.90
39875;DHT22;25547;52.530;13.194;2023-02-28T09:41:41;6.40;56.10
39875;DHT22;25547;52.530;13.194;2023-02-28T09:44:29;6.50;56.60
39875;DHT22;25547;52.530;13.194;2023-02-28T09:50:35;6.50;56.90
39875;DHT22;25547;52.530;13.194;2023-02-28T09:52:53;6.30;56.70
39875;DHT22;25547;52.530;13.194;2023-02-28T09:55:39;5.50;57.20
39875;DHT22;25547;52.530;13.194;2023-02-28T09:58:26;5.60;57.60
39875;DHT22;25547;52.530;13.194;2023-02-28T10:01:06;5.60;57.60
39875;DHT22;25547;52.530;13.194;2023-02-28T10:06:26;5.20;58.20
39875;DHT22;25547;52.530;13.194;2023-02-28T10:09:03;5.30;58.40
39875;DHT22;25547;52.530;13.194;2023-02-28T10:11:33;5.30;59.00
39875;DHT22;25547;52.530;13.194;2023-02-28T10:14:18;5.30;58.40
39875;DHT22;25547;52.530;13.194;2023-02-28T10:16:46;5.30;58.60
39875;DHT22;25547;52.530;13.194;2023-02-28T10:19:33;5.20;58.70
39875;DHT22;25547;52.530;13.194;2023-02-28T10:22:13;5.20;59.10
39875;DHT22;25547;52.530;13.194;2023-02-28T10:24:45;5.50;59.20
39875;DHT22;25547;52.530;13.194;2023-02-28T10:27:24;5.50;59.60
39875;DHT22;25547;52.530;13.194;2023-02-28T10:29:53;5.40;58.70
39875;DHT22;25547;52.530;13.194;2023-02-28T10:32:24;5.50;58.50
39875;DHT22;25547;52.530;13.194;2023-02-28T10:37:48;5.30;57.90
39875;DHT22;25547;52.530;13.194;2023-02-28T10:45:27;5.70;60.30
39875;DHT22;25547;52.530;13.194;2023-02-28T10:50:34;5.60;58.90
39875;DHT22;25547;52.530;13.194;2023-02-28T10:56:03;5.80;58.80
39875;DHT22;25547;52.530;13.194;2023-02-28T11:03:46;5.80;59.00
39875;DHT22;25547;52.530;13.194;2023-02-28T11:06:18;5.70;59.00
39875;DHT22;25547;52.530;13.194;2023-02-28T11:08:52;5.70;59.00
39875;DHT22;25547;52.530;13.194;2023-02-28T11:11:19;5.70;59.00
39875;DHT22;25547;52.530;13.194;2023-02-28T11:13:47;5.70;59.10
39875;DHT22;25547;52.530;13.194;2023-02-28T11:16:16;5.60;59.00
39875;DHT22;25547;52.530;13.194;2023-02-28T11:18:43;5.60;59.10
39875;DHT22;25547;52.530;13.194;2023-02-28T11:21:18;5.70;60.30
39875;DHT22;25547;52.530;13.194;2023-02-28T11:23:44;5.80;60.00
39875;DHT22;25547;52.530;13.194;2023-02-28T11:26:10;5.70;59.20
39875;DHT22;25547;52.530;13.194;2023-02-28T11:28:40;5.70;59.50
39875;DHT22;25547;52.530;13.194;2023-02-28T11:33:55;5.50;59.80
39875;DHT22;25547;52.530;13.194;2023-02-28T11:38:49;5.30;59.80
39875;DHT22;25547;52.530;13.194;2023-02-28T11:50:02;5.50;59.60
39875;DHT22;25547;52.530;13.194;2023-02-28T11:52:43;5.50;59.90
39875;DHT22;25547;52.530;13.194;2023-02-28T11:55:27;5.50;59.80
39875;DHT22;25547;52.530;13.194;2023-02-28T12:03:34;5.60;60.00
39875;DHT22;25547;52.530;13.194;2023-02-28T12:06:23;5.60;59.90
39875;DHT22;25547;52.530;13.194;2023-02-28T12:22:30;5.50;59.80
39875;DHT22;25547;52.530;13.194;2023-02-28T12:27:39;5.80;60.10
39875;DHT22;25547;52.530;13.194;2023-02-28T12:30:27;5.60;59.70
39875;DHT22;25547;52.530;13.194;2023-02-28T12:35:45;5.60;59.70
39875;DHT22;25547;52.530;13.194;2023-02-28T12:38:25;5.60;59.40
39875;DHT22;25547;52.530;13.194;2023-02-28T12:43:40;5.60;59.70
39875;DHT22;25547;52.530;13.194;2023-02-28T12:46:10;5.60;59.60
39875;DHT22;25547;52.530;13.194;2023-02-28T12:48:47;5.60;60.00
39875;DHT22;25547;52.530;13.194;2023-02-28T12:51:15;5.70;59.70
39875;DHT22;25547;52.530;13.194;2023-02-28T13:10:47;5.70;60.10
39875;DHT22;25547;52.530;13.194;2023-02-28T13:13:17;5.70;59.90
39875;DHT22;25547;52.530;13.194;2023-02-28T13:18:36;5.60;60.20
39875;DHT22;25547;52.530;13.194;2023-02-28T13:21:08;5.60;60.60
39875;DHT22;25547;52.530;13.194;2023-02-28T13:26:11;5.60;60.70
39875;DHT22;25547;52.530;13.194;2023-02-28T13:31:29;5.60;61.00
39875;DHT22;25547;52.530;13.194;2023-02-28T13:36:31;5.80;61.60
39875;DHT22;25547;52.530;13.194;2023-02-28T13:39:00;5.80;61.10
39875;DHT22;25547;52.530;13.194;2023-02-28T13:44:16;5.70;61.20
39875;DHT22;25547;52.530;13.194;2023-02-28T13:57:58;5.70;60.80
39875;DHT22;25547;52.530;13.194;2023-02-28T14:05:32;5.80;61.20
39875;DHT22;25547;52.530;13.194;2023-02-28T14:08:08;5.80;61.50
39875;DHT22;25547;52.530;13.194;2023-02-28T14:10:45;5.80;60.80
39875;DHT22;25547;52.530;13.194;2023-02-28T14:16:03;5.80;60.30
39875;DHT22;25547;52.530;13.194;2023-02-28T14:18:40;5.90;61.10
39875;DHT22;25547;52.530;13.194;2023-02-28T14:21:29;5.90;60.60
39875;DHT22;25547;52.530;13.194;2023-02-28T14:24:51;5.90;60.80
39875;DHT22;25547;52.530;13.194;2023-02-28T14:38:20;5.70;61.00
39875;DHT22;25547;52.530;13.194;2023-02-28T14:40:51;5.70;61.30
39875;DHT22;25547;52.530;13.194;2023-02-28T14:43:25;5.70;61.20
39875;DHT22;25547;52.530;13.194;2023-02-28T14:45:56;5.70;61.10
39875;DHT22;25547;52.530;13.194;2023-02-28T14:48:23;5.70;60.70
39875;DHT22;25547;52.530;13.194;2023-02-28T14:50:52;5.70;61.10
39875;DHT22;25547;52.530;13.194;2023-02-28T14:53:21;5.70;60.90
39875;DHT22;25547;52.530;13.194;2023-02-28T14:55:48;5.70;61.30
39875;DHT22;25547;52.530;13.194;2023-02-28T14:58:29;5.70;61.70
39875;DHT22;25547;52.530;13.194;2023-02-28T15:00:58;5.60;62.20
39875;DHT22;25547;52.530;13.194;2023-02-28T15:03:34;5.60;60.60
39875;DHT22;25547;52.530;13.194;2023-02-28T15:06:12;5.70;60.90
39875;DHT22;25547;52.530;13.194;2023-02-28T15:08:38;5.70;59.70
39875;DHT22;25547;52.530;13.194;2023-02-28T15:11:18;5.70;60.30
39875;DHT22;25547;52.530;13.194;2023-02-28T15:13:54;5.70;60.70
39875;DHT22;25547;52.530;13.194;2023-02-28T15:16:30;5.70;61.60
39875;DHT22;25547;52.530;13.194;2023-02-28T15:19:29;5.60;61.20
39875;DHT22;25547;52.530;13.194;2023-02-28T15:22:04;5.60;60.90
39875;DHT22;25547;52.530;13.194;2023-02-28T15:24:46;5.60;60.20
39875;DHT22;25547;52.530;13.194;2023-02-28T15:27:19;5.60;60.40
39875;DHT22;25547;52.530;13.194;2023-02-28T15:29:50;5.70;60.60
39875;DHT22;25547;52.530;13.194;2023-02-28T15:32:38;5.60;60.40
39875;DHT22;25547;52.530;13.194;2023-02-28T15:37:58;5.60;60.30
39875;DHT22;25547;52.530;13.194;2023-02-28T15:40:44;5.50;60.10
39875;DHT22;25547;52.530;13.194;2023-02-28T15:43:18;5.40;60.70
39875;DHT22;25547;52.530;13.194;2023-02-28T15:46:08;5.40;61.30
39875;DHT22;25547;52.530;13.194;2023-02-28T15:48:55;5.50;61.30
39875;DHT22;25547;52.530;13.194;2023-02-28T15:51:28;5.50;61.40
39875;DHT22;25547;52.530;13.194;2023-02-28T15:54:27;5.60;61.50
39875;DHT22;25547;52.530;13.194;2023-02-28T15:56:56;5.50;61.60
39875;DHT22;25547;52.530;13.194;2023-02-28T15:59:25;5.50;62.30
39875;DHT22;25547;52.530;13.194;2023-02-28T16:04:57;5.40;62.30
39875;DHT22;25547;52.530;13.194;2023-02-28T16:07:24;5.40;62.20
39875;DHT22;25547;52.530;13.194;2023-02-28T16:09:50;5.50;61.80
39875;DHT22;25547;52.530;13.194;2023-02-28T16:12:18;5.50;62.60
39875;DHT22;25547;52.530;13.194;2023-02-28T16:14:48;5.50;62.50
39875;DHT22;25547;52.530;13.194;2023-02-28T16:17:24;5.40;62.50
39875;DHT22;25547;52.530;13.194;2023-02-28T16:19:54;5.40;63.00
39875;DHT22;25547;52.530;13.194;2023-02-28T16:22:20;5.30;62.20
39875;DHT22;25547;52.530;13.194;2023-02-28T16:24:45;5.30;62.50
39875;DHT22;25547;52.530;13.194;2023-02-28T16:27:30;5.30;63.40
39875;DHT22;25547;52.530;13.194;2023-02-28T16:29:56;5.20;64.00
39875;DHT22;25547;52.530;13.194;2023-02-28T16:32:22;5.30;64.30
39875;DHT22;25547;52.530;13.194;2023-02-28T16:34:50;5.30;64.60
39875;DHT22;25547;52.530;13.194;2023-02-28T16:37:17;5.30;64.50
39875;DHT22;25547;52.530;13.194;2023-02-28T16:39:46;5.30;64.00
39875;DHT22;25547;52.530;13.194;2023-02-28T16:42:20;5.20;64.00
39875;DHT22;25547;52.530;13.194;2023-02-28T16:44:49;5.20;64.10
39875;DHT22;25547;52.530;13.194;2023-02-28T16:47:15;5.10;64.00
39875;DHT22;25547;52.530;13.194;2023-02-28T16:49:41;5.20;65.00
39875;DHT22;25547;52.530;13.194;2023-02-28T16:52:08;5.10;64.50
39875;DHT22;25547;52.530;13.194;2023-02-28T16:54:34;5.00;64.50
39875;DHT22;25547;52.530;13.194;2023-02-28T16:57:02;5.00;65.10
39875;DHT22;25547;52.530;13.194;2023-02-28T16:59:28;5.00;65.50
39875;DHT22;25547;52.530;13.194;2023-02-28T17:01:55;5.00;65.80
39875;DHT22;25547;52.530;13.194;2023-02-28T17:04:26;4.90;66.20
39875;DHT22;25547;52.530;13.194;2023-02-28T17:06:52;4.80;66.50
39875;DHT22;25547;52.530;13.194;2023-02-28T17:09:20;4.80;66.60
39875;DHT22;25547;52.530;13.194;2023-02-28T17:11:47;4.80;67.00
39875;DHT22;25547;52.530;13.194;2023-02-28T17:14:15;4.80;67.40
39875;DHT22;25547;52.530;13.194;2023-02-28T17:16:42;4.70;67.30
39875;DHT22;25547;52.530;13.194;2023-02-28T17:19:13;4.70;67.60
39875;DHT22;25547;52.530;13.194;2023-02-28T17:21:42;4.80;67.50
39875;DHT22;25547;52.530;13.194;2023-02-28T17:24:10;4.70;67.90
39875;DHT22;25547;52.530;13.194;2023-02-28T17:26:40;4.70;68.10
39875;DHT22;25547;52.530;13.194;2023-02-28T17:29:17;4.70;68.40
39875;DHT22;25547;52.530;13.194;2023-02-28T17:31:43;4.70;68.60
39875;DHT22;25547;52.530;13.194;2023-02-28T17:34:12;4.60;68.80
39875;DHT22;25547;52.530;13.194;2023-02-28T17:36:44;4.60;68.90
39875;DHT22;25547;52.530;13.194;2023-02-28T17:39:11;4.70;69.60
39875;DHT22;25547;52.530;13.194;2023-02-28T17:41:42;4.60;69.00
39875;DHT22;25547;52.530;13.194;2023-02-28T17:44:10;4.60;69.10
39875;DHT22;25547;52.530;13.194;2023-02-28T17:46:38;4.60;69.20
39875;DHT22;25547;52.530;13.194;2023-02-28T17:49:05;4.50;69.10
39875;DHT22;25547;52.530;13.194;2023-02-28T17:51:33;4.60;69.20
39875;DHT22;25547;52.530;13.194;2023-02-28T17:54:01;4.50;69.30
39875;DHT22;25547;52.530;13.194;2023-02-28T17:56:27;4.50;69.50
39875;DHT22;25547;52.530;13.194;2023-02-28T17:58:56;4.50;69.60
39875;DHT22;25547;52.530;13.194;2023-02-28T18:01:22;4.40;70.00
39875;DHT22;25547;52.530;13.194;2023-02-28T18:03:52;4.40;70.10
39875;DHT22;25547;52.530;13.194;2023-02-28T18:06:24;4.50;70.40
39875;DHT22;25547;52.530;13.194;2023-02-28T18:08:53;4.40;70.40
39875;DHT22;25547;52.530;13.194;2023-02-28T18:11:23;4.50;70.50
39875;DHT22;25547;52.530;13.194;2023-02-28T18:13:51;4.50;70.80
39875;DHT22;25547;52.530;13.194;2023-02-28T18:16:18;4.50;70.70
39875;DHT22;25547;52.530;13.194;2023-02-28T18:18:44;4.50;70.70
39875;DHT22;25547;52.530;13.194;2023-02-28T18:21:12;4.50;71.00
39875;DHT22;25547;52.530;13.194;2023-02-28T18:23:40;4.50;71.30
39875;DHT22;25547;52.530;13.194;2023-02-28T18:26:16;4.40;71.30
39875;DHT22;25547;52.530;13.194;2023-02-28T18:28:42;4.40;71.70
39875;DHT22;25547;52.530;13.194;2023-02-28T18:31:13;4.20;73.80
39875;DHT22;25547;52.530;13.194;2023-02-28T18:33:41;4.00;76.10